createdAt,value
2019-04-11T00:00:43.755Z,29.57
2019-04-11T00:03:13.768Z,28.23
2019-04-11T00:05:43.352Z,29.92
2019-04-11T00:08:12.747Z,30.82
2019-04-11T00:10:42.383Z,32.08
2019-04-11T00:13:21.123Z,32.17
2019-04-11T00:15:42.981Z,27.13
2019-04-11T00:18:12.413Z,33.17
2019-04-11T00:20:42.394Z,36.60
2019-04-11T00:23:12.275Z,36.45
2019-04-11T00:25:42.111Z,38.28
2019-04-11T00:28:11.563Z,34.85
2019-04-11T00:30:42.164Z,33.33
2019-04-11T00:33:11.603Z,34.92
2019-04-11T00:35:41.945Z,40.78
2019-04-11T00:38:11.830Z,39.20
2019-04-11T00:40:41.632Z,35.28
2019-04-11T00:43:11.480Z,32.30
2019-04-11T00:45:40.875Z,37.60
2019-04-11T00:48:11.267Z,34.47
2019-04-11T00:50:40.750Z,36.40
2019-04-11T00:53:10.135Z,36.25
2019-04-11T00:55:39.823Z,39.33
2019-04-11T00:58:09.668Z,41.68
2019-04-11T01:00:40.859Z,41.25
2019-04-11T01:03:10.290Z,42.20
2019-04-11T01:05:39.825Z,38.80
2019-04-11T01:08:09.280Z,42.37
2019-04-11T01:10:39.353Z,45.95
2019-04-11T01:13:09.212Z,41.30
2019-04-11T01:15:40.806Z,41.25
2019-04-11T01:18:11.891Z,46.17
2019-04-11T01:20:41.906Z,41.58
2019-04-11T01:23:11.269Z,45.10
2019-04-11T01:25:41.034Z,40.33
2019-04-11T01:28:12.206Z,40.20
2019-04-11T01:31:01.680Z,41.20
2019-04-11T01:33:31.762Z,44.63
2019-04-11T01:36:01.220Z,42.30
2019-04-11T01:38:32.505Z,42.35
2019-04-11T01:41:02.456Z,46.83
2019-04-11T01:43:32.928Z,41.88
2019-04-11T01:46:02.744Z,42.67
2019-04-11T01:48:46.037Z,44.03
2019-04-11T01:51:15.789Z,51.02
2019-04-11T01:53:46.901Z,47.67
2019-04-11T01:56:16.898Z,46.47
2019-04-11T01:58:46.868Z,49.25
2019-04-11T02:01:18.845Z,45.78
2019-04-11T02:06:19.521Z,50.75
2019-04-11T02:08:49.325Z,50.58
2019-04-11T02:11:18.798Z,49.53
2019-04-11T02:13:48.465Z,45.60
2019-04-11T02:16:18.944Z,47.80
2019-04-11T02:18:49.861Z,48.73
2019-04-11T02:21:19.882Z,46.45
2019-04-11T02:24:03.911Z,44.93
2019-04-11T02:26:35.627Z,47.27
2019-04-11T02:29:05.536Z,50.23
2019-04-11T02:31:36.787Z,49.98
2019-04-11T02:34:08.380Z,47.37
2019-04-11T02:36:38.402Z,45.80
2019-04-11T02:39:16.703Z,43.65
2019-04-11T02:41:42.175Z,44.45
2019-04-11T02:44:29.158Z,50.80
2019-04-11T02:46:51.648Z,45.20
2019-04-11T02:49:14.958Z,45.37
2019-04-11T02:51:45.060Z,49.03
2019-04-11T02:54:15.975Z,49.88
2019-04-11T02:56:48.742Z,46.37
2019-04-11T02:59:19.630Z,48.40
2019-04-11T03:01:50.732Z,53.05
2019-04-11T03:04:22.789Z,48.17
2019-04-11T03:06:52.068Z,44.10
2019-04-11T03:09:24.095Z,46.30
2019-04-11T03:11:54.715Z,57.93
2019-04-11T03:14:25.134Z,47.23
2019-04-11T03:17:04.948Z,48.92
2019-04-11T03:19:42.756Z,37.93
2019-04-11T03:21:58.913Z,50.23
2019-04-11T03:24:29.443Z,49.70
2019-04-11T03:27:02.780Z,48.03
2019-04-11T03:29:33.111Z,49.93
2019-04-11T03:32:37.190Z,48.77
2019-04-11T03:37:26.130Z,49.50
2019-04-11T03:39:57.023Z,50.12
2019-04-11T03:42:21.947Z,54.27
2019-04-11T03:44:47.139Z,55.57
2019-04-11T03:47:31.093Z,51.03
2019-04-11T03:49:50.979Z,51.95
2019-04-11T03:52:17.065Z,49.53
2019-04-11T03:54:47.515Z,49.80
2019-04-11T03:57:18.017Z,51.70
2019-04-11T03:59:47.966Z,52.65
2019-04-11T04:02:22.483Z,49.40
2019-04-11T04:04:53.954Z,52.73
2019-04-11T04:07:24.257Z,50.23
2019-04-11T04:09:54.569Z,49.75
2019-04-11T04:12:24.564Z,52.00
2019-04-11T04:14:55.801Z,48.90
2019-04-11T04:17:45.562Z,56.05
2019-04-11T04:20:26.970Z,53.20
2019-04-11T04:22:58.554Z,54.53
2019-04-11T04:25:28.622Z,52.60
2019-04-11T04:27:58.985Z,49.90
2019-04-11T04:30:29.831Z,53.15
2019-04-11T04:33:00.576Z,51.10
2019-04-11T04:35:31.700Z,51.77
2019-04-11T04:38:03.039Z,46.53
2019-04-11T04:40:49.804Z,54.33
2019-04-11T04:43:07.464Z,55.95
2019-04-11T04:45:55.004Z,52.10
2019-04-11T04:48:11.444Z,49.80
2019-04-11T04:50:39.213Z,52.37
2019-04-11T04:53:09.912Z,50.57
2019-04-11T04:55:39.261Z,51.98
2019-04-11T04:58:09.141Z,57.03
2019-04-11T05:00:39.652Z,47.62
2019-04-11T05:03:10.509Z,51.90
2019-04-11T05:05:39.904Z,55.98
2019-04-11T05:08:10.761Z,49.18
2019-04-11T05:10:41.306Z,52.03
2019-04-11T05:13:11.926Z,56.50
2019-04-11T05:15:43.443Z,53.50
2019-04-11T05:18:15.601Z,55.87
2019-04-11T05:20:44.270Z,56.63
2019-04-11T05:23:14.059Z,54.13
2019-04-11T05:25:44.593Z,55.83
2019-04-11T05:28:14.069Z,58.10
2019-04-11T05:30:43.475Z,55.23
2019-04-11T05:33:13.604Z,50.88
2019-04-11T05:35:43.776Z,62.23
2019-04-11T05:38:13.533Z,47.65
2019-04-11T05:40:42.992Z,46.50
2019-04-11T05:43:13.529Z,51.43
2019-04-11T05:45:43.010Z,52.23
2019-04-11T05:48:30.589Z,53.13
2019-04-11T05:51:00.549Z,53.50
2019-04-11T05:53:32.842Z,55.05
2019-04-11T05:56:03.653Z,47.87
2019-04-11T05:58:34.782Z,49.63
2019-04-11T06:01:11.024Z,50.92
2019-04-11T06:03:43.254Z,52.58
2019-04-11T06:06:16.370Z,50.52
2019-04-11T06:08:46.240Z,52.17
2019-04-11T06:11:24.189Z,46.85
2019-04-11T06:13:56.515Z,48.68
2019-04-11T06:16:36.099Z,53.70
2019-04-11T06:19:01.347Z,49.20
2019-04-11T06:21:33.612Z,53.68
2019-04-11T06:24:21.073Z,52.10
2019-04-11T06:27:04.154Z,51.02
2019-04-11T06:29:51.353Z,52.75
2019-04-11T06:32:23.492Z,52.80
2019-04-11T06:35:11.553Z,57.88
2019-04-11T06:38:00.728Z,53.52
2019-04-11T06:40:37.700Z,55.70
2019-04-11T06:43:25.743Z,49.88
2019-04-11T06:46:13.154Z,52.83
2019-04-11T06:52:08.556Z,49.30
2019-04-11T06:54:49.544Z,47.90
2019-04-11T06:57:26.323Z,52.03
2019-04-11T06:59:56.661Z,50.25
2019-04-11T07:02:27.984Z,51.83
2019-04-11T07:05:00.204Z,50.00
2019-04-11T07:10:06.302Z,49.03
2019-04-11T07:12:38.513Z,48.63
2019-04-11T07:15:19.527Z,43.87
2019-04-11T07:18:07.615Z,46.05
2019-04-11T07:20:54.215Z,48.63
2019-04-11T07:23:44.220Z,46.93
2019-04-11T07:26:25.122Z,53.52
2019-04-11T07:28:56.607Z,37.67
2019-04-11T07:31:41.012Z,48.15
2019-04-11T07:34:32.783Z,50.50
2019-04-11T07:37:17.610Z,50.00
2019-04-11T07:40:00.855Z,51.50
2019-04-11T07:42:49.718Z,45.78
2019-04-11T07:45:23.018Z,47.55
2019-04-11T07:47:55.222Z,46.60
2019-04-11T07:50:26.094Z,48.40
2019-04-11T07:53:03.308Z,48.60
2019-04-11T07:55:32.690Z,47.63
2019-04-11T07:58:04.340Z,47.55
2019-04-11T08:00:48.896Z,53.70
2019-04-11T08:06:09.482Z,48.20
2019-04-11T08:08:56.480Z,49.35
2019-04-11T08:11:31.658Z,48.65
2019-04-11T08:14:08.523Z,45.23
2019-04-11T08:16:39.545Z,46.63
2019-04-11T08:19:15.291Z,47.85
2019-04-11T08:22:03.902Z,48.58
2019-04-11T08:24:34.933Z,46.10
2019-04-11T08:27:06.969Z,33.23
2019-04-11T08:29:38.207Z,44.30
2019-04-11T08:32:26.069Z,48.90
2019-04-11T08:35:13.074Z,46.30
2019-04-11T08:37:50.110Z,44.60
2019-04-11T08:40:21.862Z,46.18
2019-04-11T08:43:08.939Z,44.45
2019-04-11T08:45:40.352Z,45.23
2019-04-11T08:48:11.476Z,48.45
2019-04-11T08:50:45.228Z,45.38
2019-04-11T08:53:18.884Z,49.55
2019-04-11T08:55:58.864Z,49.00
2019-04-11T08:58:38.478Z,49.03
2019-04-11T09:01:09.695Z,47.90
2019-04-11T09:03:42.007Z,44.08
2019-04-11T09:08:59.739Z,48.00
2019-04-11T09:11:36.647Z,44.65
2019-04-11T09:14:15.822Z,43.85
2019-04-11T09:16:47.906Z,43.68
2019-04-11T09:19:19.001Z,46.53
2019-04-11T09:22:06.804Z,44.27
2019-04-11T09:24:43.865Z,41.53
2019-04-11T09:27:31.334Z,45.60
2019-04-11T09:30:19.036Z,44.50
2019-04-11T09:32:50.734Z,43.55
2019-04-11T09:35:38.024Z,42.43
2019-04-11T09:38:12.051Z,42.85
2019-04-11T09:40:50.145Z,39.65
2019-04-11T09:43:22.132Z,43.17
2019-04-11T09:46:10.276Z,43.40
2019-04-11T09:48:56.579Z,45.45
2019-04-11T09:51:30.296Z,45.78
2019-04-11T09:54:13.372Z,44.13
2019-04-11T09:57:00.544Z,39.80
2019-04-11T09:59:43.819Z,47.53
2019-04-11T10:02:18.805Z,47.97
2019-04-11T10:04:50.240Z,41.88
2019-04-11T10:07:28.272Z,44.73
2019-04-11T10:10:04.800Z,40.30
2019-04-11T10:18:50.053Z,38.40
2019-04-11T10:21:21.268Z,37.10
2019-04-11T10:24:09.438Z,36.80
2019-04-11T10:29:58.984Z,39.00
2019-04-11T10:32:32.995Z,39.15
2019-04-11T10:35:14.261Z,37.17
2019-04-11T10:37:45.693Z,35.37
2019-04-11T10:40:21.211Z,38.80
2019-04-11T10:42:51.793Z,38.48
2019-04-11T10:45:23.181Z,35.68
2019-04-11T10:47:54.332Z,37.83
2019-04-11T10:50:42.374Z,34.10
2019-04-11T10:53:13.024Z,38.25
2019-04-11T10:56:00.048Z,34.27
2019-04-11T10:58:31.111Z,39.13
2019-04-11T11:01:05.053Z,34.97
2019-04-11T11:03:43.049Z,27.23
2019-04-11T11:06:15.570Z,31.90
2019-04-11T11:08:53.406Z,33.13
2019-04-11T11:11:26.834Z,29.42
2019-04-11T11:14:10.251Z,25.52
2019-04-11T11:16:54.782Z,31.12
2019-04-11T11:19:57.188Z,30.25
2019-04-11T11:22:17.403Z,26.02
2019-04-11T11:24:52.453Z,26.75
2019-04-11T11:27:24.398Z,29.65
2019-04-11T11:29:56.197Z,27.17
2019-04-11T11:34:56.925Z,24.72
2019-04-11T11:37:35.326Z,26.90
2019-04-11T11:40:26.157Z,26.17
2019-04-11T11:43:12.157Z,27.55
2019-04-11T11:45:49.150Z,25.97
2019-04-11T11:48:27.963Z,24.82
2019-04-11T11:50:59.194Z,28.05
2019-04-11T11:53:31.305Z,27.13
2019-04-11T11:56:02.401Z,28.23
2019-04-11T11:58:43.543Z,28.23
2019-04-11T12:01:15.695Z,27.58
2019-04-11T12:03:47.043Z,24.47
2019-04-11T12:06:22.324Z,23.02
2019-04-11T12:11:22.189Z,29.25
2019-04-11T12:14:09.499Z,26.62
2019-04-11T12:16:59.631Z,25.82
2019-04-11T12:19:28.994Z,27.15
2019-04-11T12:22:00.419Z,26.68
2019-04-11T12:24:40.614Z,27.65
2019-04-11T12:27:14.451Z,26.87
2019-04-11T12:30:05.890Z,28.73
2019-04-11T12:32:36.798Z,24.57
2019-04-11T12:35:09.230Z,29.82
2019-04-11T12:37:56.353Z,26.82
2019-04-11T12:40:43.462Z,27.02
2019-04-11T12:43:13.615Z,28.80
2019-04-11T12:45:47.098Z,26.35
2019-04-11T12:48:17.041Z,28.95
2019-04-11T12:51:01.032Z,29.55
2019-04-11T12:53:30.423Z,27.50
2019-04-11T12:56:17.596Z,27.48
2019-04-11T12:58:48.624Z,27.58
2019-04-11T13:01:26.049Z,25.77
2019-04-11T13:04:03.322Z,24.12
2019-04-11T13:06:40.812Z,23.85
2019-04-11T13:09:12.246Z,28.75
2019-04-11T13:11:43.266Z,24.77
2019-04-11T13:14:14.376Z,26.63
2019-04-11T13:16:45.405Z,27.20
2019-04-11T13:19:32.820Z,23.50
2019-04-11T13:22:03.925Z,20.48
2019-04-11T13:24:47.028Z,21.35
2019-04-11T13:27:18.134Z,22.58
2019-04-11T13:30:05.389Z,19.70
2019-04-11T13:32:43.446Z,19.73
2019-04-11T13:35:31.300Z,18.45
2019-04-11T13:38:05.238Z,18.30
2019-04-11T13:40:39.125Z,16.93
2019-04-11T13:43:16.150Z,18.52
2019-04-11T13:48:47.292Z,16.42
2019-04-11T13:51:24.384Z,16.45
2019-04-11T13:54:13.538Z,16.80
2019-04-11T13:57:00.975Z,15.88
2019-04-11T13:59:34.439Z,16.35
2019-04-11T14:02:07.657Z,14.85
2019-04-11T14:04:54.952Z,13.85
2019-04-11T14:07:26.865Z,13.20
2019-04-11T14:09:59.078Z,20.87
2019-04-11T14:12:33.475Z,15.45
2019-04-11T14:15:07.010Z,14.60
2019-04-11T14:20:29.830Z,12.68
2019-04-11T14:22:58.585Z,12.33
2019-04-11T14:25:46.077Z,13.37
2019-04-11T14:28:19.771Z,11.65
2019-04-11T14:30:52.527Z,11.65
2019-04-11T14:33:24.256Z,12.10
2019-04-11T14:38:52.282Z,10.13
2019-04-11T14:41:26.518Z,10.08
2019-04-11T14:44:00.234Z,10.93
2019-04-11T14:46:47.586Z,10.32
2019-04-11T14:49:16.969Z,10.98
2019-04-11T14:52:03.133Z,11.85
2019-04-11T14:54:43.130Z,11.13
2019-04-11T15:00:24.231Z,10.30
2019-04-11T15:05:59.992Z,11.43
2019-04-11T15:08:33.847Z,12.77
2019-04-11T15:11:21.443Z,14.18
2019-04-11T15:13:53.539Z,11.25
2019-04-11T15:16:40.697Z,12.60
2019-04-11T15:19:10.083Z,12.43
2019-04-11T15:21:41.110Z,13.13
2019-04-11T15:24:11.154Z,13.22
2019-04-11T15:26:48.126Z,12.60
2019-04-11T15:29:19.082Z,12.75
2019-04-11T15:31:50.102Z,11.80
2019-04-11T15:34:36.182Z,10.98
2019-04-11T15:37:15.989Z,10.80
2019-04-11T15:39:59.112Z,10.58
2019-04-11T15:42:48.166Z,12.85
2019-04-11T15:45:28.204Z,13.33
2019-04-11T15:48:17.798Z,12.18
2019-04-11T15:51:06.465Z,10.08
2019-04-11T15:53:37.568Z,11.65
2019-04-11T15:56:25.250Z,11.35
2019-04-11T15:59:07.977Z,10.38
2019-04-11T16:01:51.294Z,9.23
2019-04-11T16:04:31.055Z,10.10
2019-04-11T16:07:12.190Z,10.95
2019-04-11T16:09:44.088Z,10.90
2019-04-11T16:12:30.379Z,11.38
2019-04-11T16:15:17.925Z,11.43
2019-04-11T16:18:02.008Z,9.58
2019-04-11T16:20:31.384Z,8.50
2019-04-11T16:23:18.439Z,10.60
2019-04-11T16:25:49.455Z,11.33
2019-04-11T16:28:20.557Z,9.30
2019-04-11T16:30:54.526Z,9.03
2019-04-11T16:33:34.715Z,9.05
2019-04-11T16:36:14.946Z,9.70
2019-04-11T16:38:51.650Z,8.83
2019-04-11T16:41:38.793Z,9.65
2019-04-11T16:44:18.281Z,9.15
2019-04-11T16:47:04.520Z,11.10
2019-04-11T16:49:33.931Z,9.15
2019-04-11T16:52:07.368Z,9.58
2019-04-11T16:54:34.425Z,8.63
2019-04-11T16:57:03.778Z,9.97
2019-04-11T16:59:35.243Z,11.00
2019-04-11T17:02:09.924Z,9.98
2019-04-11T17:04:39.432Z,9.73
2019-04-11T17:07:13.179Z,11.13
2019-04-11T17:09:44.778Z,10.35
2019-04-11T17:12:14.174Z,10.00
2019-04-11T17:14:43.625Z,11.40
2019-04-11T17:17:15.145Z,11.15
2019-04-11T17:19:45.016Z,9.43
2019-04-11T17:22:16.852Z,13.00
2019-04-11T17:24:47.811Z,10.32
2019-04-11T17:27:16.728Z,10.03
2019-04-11T17:29:46.145Z,10.23
2019-04-11T17:32:15.524Z,10.82
2019-04-11T17:34:45.620Z,11.10
2019-04-11T17:37:15.897Z,9.60
2019-04-11T17:39:46.131Z,10.13
2019-04-11T17:42:16.571Z,11.33
2019-04-11T17:44:46.683Z,11.85
2019-04-11T17:47:16.874Z,12.40
2019-04-11T17:49:47.173Z,9.90
2019-04-11T17:52:17.535Z,10.25
2019-04-11T17:54:47.666Z,11.60
2019-04-11T17:57:18.317Z,11.00
2019-04-11T17:59:48.808Z,12.03
2019-04-11T18:02:19.273Z,11.68
2019-04-11T18:04:48.675Z,11.83
2019-04-11T18:07:19.022Z,11.54
2019-04-11T18:09:51.203Z,10.50
2019-04-11T18:12:20.591Z,10.40
2019-04-11T18:14:49.981Z,12.68
2019-04-11T18:17:20.399Z,11.75
2019-04-11T18:19:50.521Z,12.00
2019-04-11T18:22:20.724Z,11.42
2019-04-11T18:24:50.955Z,12.90
2019-04-11T18:27:21.865Z,12.03
2019-04-11T18:29:52.965Z,12.15
2019-04-11T18:32:24.921Z,10.07
2019-04-11T18:34:54.299Z,12.00
2019-04-11T18:37:23.681Z,11.80
2019-04-11T18:39:53.087Z,11.97
2019-04-11T18:42:22.727Z,11.84
2019-04-11T18:44:52.962Z,10.35
2019-04-11T18:47:23.506Z,13.62
2019-04-11T18:49:55.441Z,11.68
2019-04-11T18:52:26.515Z,12.10
2019-04-11T18:54:56.911Z,10.88
2019-04-11T18:57:26.639Z,11.73
2019-04-11T18:59:56.015Z,10.38
2019-04-11T19:02:26.573Z,14.35
2019-04-11T19:04:56.877Z,13.48
2019-04-11T19:07:27.947Z,12.65
2019-04-11T19:09:57.407Z,11.75
2019-04-11T19:12:26.811Z,12.03
2019-04-11T19:14:56.212Z,14.20
2019-04-11T19:17:26.260Z,11.80
2019-04-11T19:20:02.016Z,13.72
2019-04-11T19:22:37.583Z,17.55
2019-04-11T19:25:11.818Z,15.32
2019-04-11T19:27:39.479Z,14.55
2019-04-11T19:30:18.952Z,15.15
2019-04-11T19:32:52.949Z,14.58
2019-04-11T19:35:23.928Z,14.47
2019-04-11T19:37:53.501Z,14.83
2019-04-11T19:40:22.899Z,14.90
2019-04-11T19:42:52.288Z,14.73
2019-04-11T19:45:21.674Z,13.83
2019-04-11T19:47:58.128Z,13.70
2019-04-11T19:50:29.194Z,17.52
2019-04-11T19:53:02.648Z,14.55
2019-04-11T19:55:48.030Z,16.48
2019-04-11T19:58:19.609Z,16.57
2019-04-11T20:00:52.892Z,15.08
2019-04-11T20:03:21.835Z,16.43
2019-04-11T20:05:51.325Z,15.65
2019-04-11T20:08:20.714Z,17.07
2019-04-11T20:10:50.109Z,16.10
2019-04-11T20:13:19.554Z,15.72
2019-04-11T20:15:50.534Z,14.80
2019-04-11T20:18:22.699Z,17.32
2019-04-11T20:23:21.691Z,16.75
2019-04-11T20:25:51.089Z,16.57
2019-04-11T20:28:20.883Z,16.35
2019-04-11T20:30:53.415Z,14.87
2019-04-11T20:33:27.356Z,18.27
2019-04-11T20:35:53.885Z,16.67
2019-04-11T20:38:23.286Z,15.98
2019-04-11T20:40:53.274Z,17.42
2019-04-11T20:43:25.415Z,18.37
2019-04-11T20:45:54.170Z,17.57
2019-04-11T20:48:23.523Z,18.87
2019-04-11T20:50:52.907Z,15.53
2019-04-11T20:53:22.297Z,17.67
2019-04-11T20:55:51.831Z,17.70
2019-04-11T20:58:27.336Z,16.15
2019-04-11T21:00:55.648Z,17.40
2019-04-11T21:03:24.302Z,20.10
2019-04-11T21:05:53.690Z,17.63
2019-04-11T21:08:24.143Z,17.55
2019-04-11T21:10:53.531Z,18.80
2019-04-11T21:13:22.920Z,17.85
2019-04-11T21:15:52.300Z,17.52
2019-04-11T21:18:25.659Z,18.02
2019-04-11T21:20:55.251Z,20.80
2019-04-11T21:23:24.928Z,16.53
2019-04-11T21:25:58.864Z,19.13
2019-04-11T21:28:27.893Z,18.57
2019-04-11T21:31:00.138Z,17.45
2019-04-11T21:33:29.221Z,17.93
2019-04-11T21:36:01.332Z,18.35
2019-04-11T21:38:30.883Z,19.50
2019-04-11T21:41:00.882Z,19.65
2019-04-11T21:43:31.224Z,18.42
2019-04-11T21:46:00.625Z,21.07
2019-04-11T21:48:30.017Z,18.42
2019-04-11T21:50:59.412Z,19.85
2019-04-11T21:53:36.663Z,19.50
2019-04-11T21:56:02.297Z,20.55
2019-04-11T21:58:31.686Z,19.30
2019-04-11T22:01:04.328Z,20.97
2019-04-11T22:03:33.843Z,20.72
2019-04-11T22:06:03.445Z,21.42
2019-04-11T22:08:34.459Z,20.85
2019-04-11T22:11:04.863Z,20.45
2019-04-11T22:13:34.426Z,19.95
2019-04-11T22:16:03.875Z,20.43
2019-04-11T22:18:33.265Z,20.45
2019-04-11T22:21:02.648Z,20.90
2019-04-11T22:23:32.298Z,21.20
2019-04-11T22:26:01.676Z,23.73
2019-04-11T22:28:31.067Z,23.42
2019-04-11T22:31:00.456Z,20.70
2019-04-11T22:33:34.596Z,19.67
2019-04-11T22:36:04.152Z,19.77
2019-04-11T22:38:33.556Z,21.92
2019-04-11T22:41:02.947Z,20.92
2019-04-11T22:43:32.682Z,18.40
2019-04-11T22:46:03.130Z,19.90
2019-04-11T22:48:32.507Z,21.17
2019-04-11T22:51:01.902Z,20.95
2019-04-11T22:53:31.285Z,21.85
2019-04-11T22:56:01.599Z,21.68
2019-04-11T22:58:30.983Z,23.83
2019-04-11T23:01:00.367Z,21.93
2019-04-11T23:03:37.112Z,23.77
2019-04-11T23:06:06.490Z,20.27
2019-04-11T23:08:35.923Z,18.90
2019-04-11T23:11:07.293Z,20.00
2019-04-11T23:13:36.754Z,21.50
2019-04-11T23:16:06.135Z,19.77
2019-04-11T23:18:35.835Z,19.05
2019-04-11T23:21:05.218Z,20.30
2019-04-11T23:23:34.676Z,19.92
2019-04-11T23:26:04.473Z,21.45
2019-04-11T23:28:33.871Z,22.82
2019-04-11T23:31:03.265Z,20.00
2019-04-11T23:33:32.660Z,21.65
2019-04-11T23:36:02.054Z,21.15
2019-04-11T23:38:31.446Z,23.00
2019-04-11T23:41:01.815Z,23.73
2019-04-11T23:43:31.195Z,21.52
2019-04-11T23:46:00.591Z,22.48
2019-04-11T23:48:29.974Z,22.93
2019-04-11T23:50:59.632Z,25.25
2019-04-11T23:53:29.663Z,22.55
2019-04-11T23:56:00.723Z,22.32
2019-04-11T23:58:32.072Z,20.97
